sensor_id;sensor_type;location;lat;lon;timestamp;pressure;altitude;pressure_sealevel;temperature;humidity
60228;BME280;46091;46.512;6.626;2023-05-11T05:21:32;96758.06;;;14.98;62.20
60228;BME280;46091;46.512;6.626;2023-05-11T05:23:36;96762.63;;;15.27;61.69
60228;BME280;46091;46.512;6.626;2023-05-11T05:25:39;96757.41;;;15.51;61.38
60228;BME280;46091;46.512;6.626;2023-05-11T05:27:41;96758.44;;;15.68;61.01
60228;BME280;46091;46.512;6.626;2023-05-11T05:29:44;96757.22;;;15.82;60.82
60228;BME280;46091;46.512;6.626;2023-05-11T05:31:47;96757.84;;;15.96;60.53
60228;BME280;46091;46.512;6.626;2023-05-11T05:33:50;96750.91;;;16.07;60.22
60228;BME280;46091;46.512;6.626;2023-05-11T05:35:53;96754.63;;;16.17;60.19
60228;BME280;46091;46.512;6.626;2023-05-11T05:37:57;96754.91;;;16.27;59.93
60228;BME280;46091;46.512;6.626;2023-05-11T05:40:00;96756.44;;;16.35;59.68
60228;BME280;46091;46.512;6.626;2023-05-11T05:42:04;96760.81;;;16.41;59.60
60228;BME280;46091;46.512;6.626;2023-05-11T05:44:07;96760.72;;;16.48;59.55
60228;BME280;46091;46.512;6.626;2023-05-11T05:46:10;96761.63;;;16.53;59.39
60228;BME280;46091;46.512;6.626;2023-05-11T05:48:14;96754.59;;;16.59;59.45
60228;BME280;46091;46.512;6.626;2023-05-11T05:50:17;96759.44;;;16.62;59.33
60228;BME280;46091;46.512;6.626;2023-05-11T05:52:20;96756.09;;;16.67;59.27
60228;BME280;46091;46.512;6.626;2023-05-11T05:54:24;96761.81;;;16.70;59.04
60228;BME280;46091;46.512;6.626;2023-05-11T05:56:27;96763.44;;;16.71;59.05
60228;BME280;46091;46.512;6.626;2023-05-11T05:58:32;96765.63;;;16.74;58.98
60228;BME280;46091;46.512;6.626;2023-05-11T06:00:35;96765.06;;;16.72;59.04
60228;BME280;46091;46.512;6.626;2023-05-11T06:02:38;96758.31;;;16.70;59.00
60228;BME280;46091;46.512;6.626;2023-05-11T06:04:42;96758.56;;;16.68;58.93
60228;BME280;46091;46.512;6.626;2023-05-11T06:06:45;96763.09;;;16.68;58.90
60228;BME280;46091;46.512;6.626;2023-05-11T06:08:48;96756.34;;;16.65;58.97
60228;BME280;46091;46.512;6.626;2023-05-11T06:10:52;96759.38;;;16.69;58.89
60228;BME280;46091;46.512;6.626;2023-05-11T06:12:55;96767.38;;;16.69;58.64
60228;BME280;46091;46.512;6.626;2023-05-11T06:14:58;96761.56;;;16.72;58.65
60228;BME280;46091;46.512;6.626;2023-05-11T06:17:01;96751.69;;;16.72;58.77
60228;BME280;46091;46.512;6.626;2023-05-11T06:19:04;96750.22;;;16.76;58.61
60228;BME280;46091;46.512;6.626;2023-05-11T06:21:08;96756.56;;;16.75;58.51
60228;BME280;46091;46.512;6.626;2023-05-11T06:23:10;96753.47;;;16.78;58.42
60228;BME280;46091;46.512;6.626;2023-05-11T06:25:15;96757.50;;;16.81;58.47
60228;BME280;46091;46.512;6.626;2023-05-11T06:27:20;96746.03;;;16.80;58.52
60228;BME280;46091;46.512;6.626;2023-05-11T06:29:23;96751.84;;;16.77;58.40
60228;BME280;46091;46.512;6.626;2023-05-11T06:31:26;96751.03;;;16.77;58.27
60228;BME280;46091;46.512;6.626;2023-05-11T06:33:30;96745.06;;;16.75;58.40
60228;BME280;46091;46.512;6.626;2023-05-11T06:35:35;96749.38;;;16.76;58.42
60228;BME280;46091;46.512;6.626;2023-05-11T06:37:38;96754.25;;;16.79;58.39
60228;BME280;46091;46.512;6.626;2023-05-11T06:39:41;96749.16;;;16.77;58.31
60228;BME280;46091;46.512;6.626;2023-05-11T06:41:44;96746.69;;;16.76;58.53
60228;BME280;46091;46.512;6.626;2023-05-11T06:43:48;96743.59;;;16.79;58.46
60228;BME280;46091;46.512;6.626;2023-05-11T06:45:51;96748.44;;;16.82;58.35
60228;BME280;46091;46.512;6.626;2023-05-11T06:47:54;96743.44;;;16.85;58.19
60228;BME280;46091;46.512;6.626;2023-05-11T06:49:57;96741.59;;;16.86;58.23
60228;BME280;46091;46.512;6.626;2023-05-11T06:52:00;96739.72;;;16.86;58.25
60228;BME280;46091;46.512;6.626;2023-05-11T06:54:03;96738.91;;;16.86;58.29
60228;BME280;46091;46.512;6.626;2023-05-11T06:56:07;96738.91;;;16.86;58.13
60228;BME280;46091;46.512;6.626;2023-05-11T06:58:09;96738.72;;;16.87;58.16
60228;BME280;46091;46.512;6.626;2023-05-11T07:00:15;96739.28;;;16.90;58.23
60228;BME280;46091;46.512;6.626;2023-05-11T07:02:19;96743.22;;;16.87;58.07
60228;BME280;46091;46.512;6.626;2023-05-11T07:04:22;96740.34;;;16.88;58.06
60228;BME280;46091;46.512;6.626;2023-05-11T07:06:25;96744.38;;;16.91;57.94
60228;BME280;46091;46.512;6.626;2023-05-11T07:08:28;96743.34;;;16.92;57.98
60228;BME280;46091;46.512;6.626;2023-05-11T07:10:31;96747.41;;;16.95;57.97
60228;BME280;46091;46.512;6.626;2023-05-11T07:12:34;96749.59;;;16.98;57.84
60228;BME280;46091;46.512;6.626;2023-05-11T07:14:37;96750.19;;;17.00;57.71
60228;BME280;46091;46.512;6.626;2023-05-11T07:16:42;96751.22;;;16.99;57.75
60228;BME280;46091;46.512;6.626;2023-05-11T07:18:44;96747.53;;;17.00;57.56
60228;BME280;46091;46.512;6.626;2023-05-11T07:20:47;96740.88;;;17.02;57.66
60228;BME280;46091;46.512;6.626;2023-05-11T07:22:51;96747.28;;;17.01;57.72
60228;BME280;46091;46.512;6.626;2023-05-11T07:24:54;96751.34;;;17.04;57.54
60228;BME280;46091;46.512;6.626;2023-05-11T07:26:57;96753.19;;;17.03;57.48
60228;BME280;46091;46.512;6.626;2023-05-11T07:29:00;96747.59;;;17.05;57.29
60228;BME280;46091;46.512;6.626;2023-05-11T07:31:03;96751.91;;;17.06;57.41
60228;BME280;46091;46.512;6.626;2023-05-11T07:33:08;96750.28;;;17.05;57.47
60228;BME280;46091;46.512;6.626;2023-05-11T07:35:11;96744.38;;;17.03;57.47
60228;BME280;46091;46.512;6.626;2023-05-11T07:37:15;96745.19;;;17.03;57.47
60228;BME280;46091;46.512;6.626;2023-05-11T07:39:18;96739.84;;;17.03;57.28
60228;BME280;46091;46.512;6.626;2023-05-11T07:41:21;96741.13;;;17.01;57.24
60228;BME280;46091;46.512;6.626;2023-05-11T07:43:27;96742.75;;;17.02;57.13
60228;BME280;46091;46.512;6.626;2023-05-11T07:45:30;96744.38;;;17.03;57.27
60228;BME280;46091;46.512;6.626;2023-05-11T07:47:33;96739.03;;;17.03;57.16
60228;BME280;46091;46.512;6.626;2023-05-11T07:49:39;96743.56;;;17.02;57.14
60228;BME280;46091;46.512;6.626;2023-05-11T07:51:44;96736.59;;;17.01;57.10
60228;BME280;46091;46.512;6.626;2023-05-11T07:53:47;96739.84;;;17.03;57.02
60228;BME280;46091;46.512;6.626;2023-05-11T07:55:50;96742.75;;;17.02;56.97
60228;BME280;46091;46.512;6.626;2023-05-11T07:57:53;96744.59;;;17.01;57.09
60228;BME280;46091;46.512;6.626;2023-05-11T07:59:56;96734.50;;;17.03;57.12
60228;BME280;46091;46.512;6.626;2023-05-11T08:01:59;96739.94;;;17.08;57.05
60228;BME280;46091;46.512;6.626;2023-05-11T08:04:02;96738.06;;;17.09;56.93
60228;BME280;46091;46.512;6.626;2023-05-11T08:06:07;96741.09;;;17.12;56.79
60228;BME280;46091;46.512;6.626;2023-05-11T08:08:11;96736.91;;;17.16;56.40
60228;BME280;46091;46.512;6.626;2023-05-11T08:10:14;96745.25;;;17.20;56.56
60228;BME280;46091;46.512;6.626;2023-05-11T08:12:16;96736.78;;;17.23;56.43
60228;BME280;46091;46.512;6.626;2023-05-11T08:14:20;96732.81;;;17.26;56.27
60228;BME280;46091;46.512;6.626;2023-05-11T08:16:23;96738.41;;;17.24;56.09
60228;BME280;46091;46.512;6.626;2023-05-11T08:18:26;96730.84;;;17.21;56.14
60228;BME280;46091;46.512;6.626;2023-05-11T08:20:29;96738.03;;;17.21;55.99
60228;BME280;46091;46.512;6.626;2023-05-11T08:22:33;96728.78;;;17.23;55.88
60228;BME280;46091;46.512;6.626;2023-05-11T08:24:36;96730.72;;;17.28;55.69
60228;BME280;46091;46.512;6.626;2023-05-11T08:26:40;96714.19;;;17.31;55.67
60228;BME280;46091;46.512;6.626;2023-05-11T08:28:43;96723.63;;;17.33;55.65
60228;BME280;46091;46.512;6.626;2023-05-11T08:30:46;96725.25;;;17.34;55.56
60228;BME280;46091;46.512;6.626;2023-05-11T08:32:48;96721.03;;;17.38;55.57
60228;BME280;46091;46.512;6.626;2023-05-11T08:34:59;96726.47;;;17.43;55.49
60228;BME280;46091;46.512;6.626;2023-05-11T08:37:02;96718.81;;;17.47;55.54
60228;BME280;46091;46.512;6.626;2023-05-11T08:39:07;96717.53;;;17.50;55.61
60228;BME280;46091;46.512;6.626;2023-05-11T08:41:11;96719.13;;;17.51;55.54
60228;BME280;46091;46.512;6.626;2023-05-11T08:43:14;96722.38;;;17.53;55.42
60228;BME280;46091;46.512;6.626;2023-05-11T08:45:18;96721.56;;;17.52;55.45
60228;BME280;46091;46.512;6.626;2023-05-11T08:47:23;96720.28;;;17.55;55.53
60228;BME280;46091;46.512;6.626;2023-05-11T08:49:26;96715.28;;;17.58;55.46
60228;BME280;46091;46.512;6.626;2023-05-11T08:51:29;96714.78;;;17.61;55.34
60228;BME280;46091;46.512;6.626;2023-05-11T08:53:33;96714.00;;;17.61;55.32
60228;BME280;46091;46.512;6.626;2023-05-11T08:55:38;96715.38;;;17.63;55.37
60228;BME280;46091;46.512;6.626;2023-05-11T08:57:43;96710.81;;;17.64;55.33
60228;BME280;46091;46.512;6.626;2023-05-11T08:59:48;96711.88;;;17.63;55.21
60228;BME280;46091;46.512;6.626;2023-05-11T09:01:52;96714.78;;;17.61;55.16
60228;BME280;46091;46.512;6.626;2023-05-11T09:03:57;96711.00;;;17.57;55.12
60228;BME280;46091;46.512;6.626;2023-05-11T09:06:02;96706.69;;;17.56;55.17
60228;BME280;46091;46.512;6.626;2023-05-11T09:08:10;96711.22;;;17.56;55.21
60228;BME280;46091;46.512;6.626;2023-05-11T09:10:14;96711.78;;;17.58;55.22
60228;BME280;46091;46.512;6.626;2023-05-11T09:12:19;96699.81;;;17.60;55.08
60228;BME280;46091;46.512;6.626;2023-05-11T09:14:26;96699.81;;;17.60;55.04
60228;BME280;46091;46.512;6.626;2023-05-11T09:16:30;96702.16;;;17.57;54.94
60228;BME280;46091;46.512;6.626;2023-05-11T09:18:45;96694.16;;;17.57;54.85
60228;BME280;46091;46.512;6.626;2023-05-11T09:20:50;96697.88;;;17.56;54.70
60228;BME280;46091;46.512;6.626;2023-05-11T09:22:54;96697.75;;;17.51;54.53
60228;BME280;46091;46.512;6.626;2023-05-11T09:24:58;96696.63;;;17.46;54.70
60228;BME280;46091;46.512;6.626;2023-05-11T09:27:07;96689.97;;;17.49;54.46
60228;BME280;46091;46.512;6.626;2023-05-11T09:29:12;96688.69;;;17.52;54.40
60228;BME280;46091;46.512;6.626;2023-05-11T09:31:39;96685.69;;;17.48;54.54
60228;BME280;46091;46.512;6.626;2023-05-11T09:33:42;96685.94;;;17.46;54.62
60228;BME280;46091;46.512;6.626;2023-05-11T09:35:45;96680.22;;;17.43;54.56
60228;BME280;46091;46.512;6.626;2023-05-11T09:37:59;96689.31;;;17.42;54.47
60228;BME280;46091;46.512;6.626;2023-05-11T09:40:03;96687.19;;;17.44;54.42
60228;BME280;46091;46.512;6.626;2023-05-11T09:42:28;96688.84;;;17.45;54.44
60228;BME280;46091;46.512;6.626;2023-05-11T09:44:33;96676.88;;;17.48;54.31
60228;BME280;46091;46.512;6.626;2023-05-11T09:46:37;96674.09;;;17.42;54.29
60228;BME280;46091;46.512;6.626;2023-05-11T09:48:40;96675.25;;;17.46;54.26
60228;BME280;46091;46.512;6.626;2023-05-11T09:50:43;96667.88;;;17.54;54.16
60228;BME280;46091;46.512;6.626;2023-05-11T09:52:49;96667.97;;;17.59;53.95
60228;BME280;46091;46.512;6.626;2023-05-11T09:54:53;96665.38;;;17.64;53.77
60228;BME280;46091;46.512;6.626;2023-05-11T09:56:56;96666.09;;;17.71;53.65
60228;BME280;46091;46.512;6.626;2023-05-11T09:59:01;96675.72;;;17.72;53.51
60228;BME280;46091;46.512;6.626;2023-05-11T10:01:05;96671.50;;;17.76;53.31
60228;BME280;46091;46.512;6.626;2023-05-11T10:03:08;96664.63;;;17.80;53.26
60228;BME280;46091;46.512;6.626;2023-05-11T10:05:12;96666.09;;;17.88;53.16
60228;BME280;46091;46.512;6.626;2023-05-11T10:07:24;96668.84;;;17.93;52.97
60228;BME280;46091;46.512;6.626;2023-05-11T10:09:28;96664.06;;;17.95;52.92
60228;BME280;46091;46.512;6.626;2023-05-11T10:11:31;96661.97;;;17.97;52.86
60228;BME280;46091;46.512;6.626;2023-05-11T10:13:34;96659.53;;;17.95;52.88
60228;BME280;46091;46.512;6.626;2023-05-11T10:15:38;96664.31;;;17.93;52.69
60228;BME280;46091;46.512;6.626;2023-05-11T10:17:43;96666.44;;;17.91;52.50
60228;BME280;46091;46.512;6.626;2023-05-11T10:19:48;96662.03;;;17.85;52.59
60228;BME280;46091;46.512;6.626;2023-05-11T10:21:51;96666.75;;;17.78;52.38
60228;BME280;46091;46.512;6.626;2023-05-11T10:23:55;96670.03;;;17.68;52.48
60228;BME280;46091;46.512;6.626;2023-05-11T10:25:59;96671.28;;;17.66;52.28
60228;BME280;46091;46.512;6.626;2023-05-11T10:28:03;96665.38;;;17.64;52.37
60228;BME280;46091;46.512;6.626;2023-05-11T10:30:09;96667.16;;;17.58;52.26
60228;BME280;46091;46.512;6.626;2023-05-11T10:32:15;96674.28;;;17.53;52.08
60228;BME280;46091;46.512;6.626;2023-05-11T10:34:20;96666.75;;;17.50;52.01
60228;BME280;46091;46.512;6.626;2023-05-11T10:36:24;96669.66;;;17.48;52.07
60228;BME280;46091;46.512;6.626;2023-05-11T10:38:28;96667.78;;;17.49;52.12
60228;BME280;46091;46.512;6.626;2023-05-11T10:40:34;96668.28;;;17.45;51.93
60228;BME280;46091;46.512;6.626;2023-05-11T10:42:56;96668.28;;;17.45;52.04
60228;BME280;46091;46.512;6.626;2023-05-11T10:45:13;96664.56;;;17.46;52.21
60228;BME280;46091;46.512;6.626;2023-05-11T10:47:35;96662.69;;;17.47;52.17
60228;BME280;46091;46.512;6.626;2023-05-11T10:50:02;96661.88;;;17.46;52.37
60228;BME280;46091;46.512;6.626;2023-05-11T10:52:37;96666.97;;;17.48;52.39
60228;BME280;46091;46.512;6.626;2023-05-11T10:54:54;96670.72;;;17.47;52.45
60228;BME280;46091;46.512;6.626;2023-05-11T10:57:09;96665.69;;;17.51;52.43
60228;BME280;46091;46.512;6.626;2023-05-11T10:59:44;96657.41;;;17.52;52.71
60228;BME280;46091;46.512;6.626;2023-05-11T11:01:53;96658.78;;;17.55;52.65
60228;BME280;46091;46.512;6.626;2023-05-11T11:04:01;96654.03;;;17.57;52.46
60228;BME280;46091;46.512;6.626;2023-05-11T11:06:20;96650.78;;;17.55;52.54
60228;BME280;46091;46.512;6.626;2023-05-11T11:08:24;96648.09;;;17.55;52.54
60228;BME280;46091;46.512;6.626;2023-05-11T11:10:32;96651.13;;;17.58;52.53
60228;BME280;46091;46.512;6.626;2023-05-11T11:12:35;96650.41;;;17.63;52.50
60228;BME280;46091;46.512;6.626;2023-05-11T11:14:53;96641.56;;;17.62;52.40
60228;BME280;46091;46.512;6.626;2023-05-11T11:17:21;96641.81;;;17.61;52.35
60228;BME280;46091;46.512;6.626;2023-05-11T11:19:34;96638.91;;;17.62;52.23
60228;BME280;46091;46.512;6.626;2023-05-11T11:21:39;96636.78;;;17.64;52.33
60228;BME280;46091;46.512;6.626;2023-05-11T11:23:47;96631.78;;;17.68;52.34
60228;BME280;46091;46.512;6.626;2023-05-11T11:25:52;96632.59;;;17.68;52.36
60228;BME280;46091;46.512;6.626;2023-05-11T11:27:57;96628.75;;;17.64;52.38
60228;BME280;46091;46.512;6.626;2023-05-11T11:30:16;96625.84;;;17.66;52.28
60228;BME280;46091;46.512;6.626;2023-05-11T11:32:26;96621.00;;;17.63;52.31
60228;BME280;46091;46.512;6.626;2023-05-11T11:34:34;96623.09;;;17.61;52.43
60228;BME280;46091;46.512;6.626;2023-05-11T11:37:09;96627.41;;;17.62;52.34
60228;BME280;46091;46.512;6.626;2023-05-11T11:39:17;96620.50;;;17.66;52.36
60228;BME280;46091;46.512;6.626;2023-05-11T11:41:27;96617.25;;;17.64;52.42
60228;BME280;46091;46.512;6.626;2023-05-11T11:43:42;96615.41;;;17.64;52.40
60228;BME280;46091;46.512;6.626;2023-05-11T11:45:49;96618.88;;;17.65;52.44
60228;BME280;46091;46.512;6.626;2023-05-11T11:48:10;96621.81;;;17.63;52.41
60228;BME280;46091;46.512;6.626;2023-05-11T11:50:14;96616.47;;;17.63;52.32
60228;BME280;46091;46.512;6.626;2023-05-11T11:52:33;96616.81;;;17.67;52.37
60228;BME280;46091;46.512;6.626;2023-05-11T11:54:37;96622.75;;;17.69;52.11
60228;BME280;46091;46.512;6.626;2023-05-11T11:56:44;96607.50;;;17.69;52.26
60228;BME280;46091;46.512;6.626;2023-05-11T11:58:57;96615.28;;;17.71;52.32
60228;BME280;46091;46.512;6.626;2023-05-11T12:01:02;96612.94;;;17.74;52.22
60228;BME280;46091;46.512;6.626;2023-05-11T12:03:06;96618.28;;;17.74;52.22
60228;BME280;46091;46.512;6.626;2023-05-11T12:05:13;96608.38;;;17.75;52.10
60228;BME280;46091;46.512;6.626;2023-05-11T12:07:19;96612.63;;;17.71;52.32
60228;BME280;46091;46.512;6.626;2023-05-11T12:09:25;96607.72;;;17.68;52.10
60228;BME280;46091;46.512;6.626;2023-05-11T12:11:28;96606.31;;;17.65;52.06
60228;BME280;46091;46.512;6.626;2023-05-11T12:13:31;96603.66;;;17.65;51.93
60228;BME280;46091;46.512;6.626;2023-05-11T12:15:34;96602.38;;;17.68;52.08
60228;BME280;46091;46.512;6.626;2023-05-11T12:17:37;96599.50;;;17.69;51.88
60228;BME280;46091;46.512;6.626;2023-05-11T12:19:44;96597.03;;;17.68;51.86
60228;BME280;46091;46.512;6.626;2023-05-11T12:21:47;96590.88;;;17.67;51.91
60228;BME280;46091;46.512;6.626;2023-05-11T12:23:51;96596.94;;;17.63;52.00
60228;BME280;46091;46.512;6.626;2023-05-11T12:26:03;96585.13;;;17.59;51.81
60228;BME280;46091;46.512;6.626;2023-05-11T12:28:06;96585.13;;;17.59;51.85
60228;BME280;46091;46.512;6.626;2023-05-11T12:30:18;96591.03;;;17.61;51.84
60228;BME280;46091;46.512;6.626;2023-05-11T12:32:26;96590.22;;;17.60;51.72
60228;BME280;46091;46.512;6.626;2023-05-11T12:34:29;96583.81;;;17.61;51.64
60228;BME280;46091;46.512;6.626;2023-05-11T12:36:38;96574.50;;;17.64;51.48
60228;BME280;46091;46.512;6.626;2023-05-11T12:38:44;96574.03;;;17.67;51.54
60228;BME280;46091;46.512;6.626;2023-05-11T12:40:49;96578.91;;;17.70;51.75
60228;BME280;46091;46.512;6.626;2023-05-11T12:42:54;96570.91;;;17.70;51.81
60228;BME280;46091;46.512;6.626;2023-05-11T12:44:58;96566.09;;;17.72;51.75
60228;BME280;46091;46.512;6.626;2023-05-11T12:47:01;96552.81;;;17.77;51.84
60228;BME280;46091;46.512;6.626;2023-05-11T12:49:04;96559.88;;;17.83;51.61
60228;BME280;46091;46.512;6.626;2023-05-11T12:51:07;96554.81;;;17.87;51.92
60228;BME280;46091;46.512;6.626;2023-05-11T12:53:14;96548.75;;;17.91;51.91
60228;BME280;46091;46.512;6.626;2023-05-11T12:55:26;96546.16;;;17.96;51.94
60228;BME280;46091;46.512;6.626;2023-05-11T12:57:29;96542.25;;;18.04;51.85
60228;BME280;46091;46.512;6.626;2023-05-11T12:59:37;96539.06;;;18.07;51.88
60228;BME280;46091;46.512;6.626;2023-05-11T13:01:41;96539.06;;;18.07;51.87
60228;BME280;46091;46.512;6.626;2023-05-11T13:03:44;96534.03;;;18.11;51.92
60228;BME280;46091;46.512;6.626;2023-05-11T13:05:48;96537.84;;;18.15;52.09
60228;BME280;46091;46.512;6.626;2023-05-11T13:07:56;96529.88;;;18.20;52.10
60228;BME280;46091;46.512;6.626;2023-05-11T13:10:00;96523.56;;;18.26;52.13
60228;BME280;46091;46.512;6.626;2023-05-11T13:12:10;96522.75;;;18.25;52.11
60228;BME280;46091;46.512;6.626;2023-05-11T13:14:14;96513.66;;;18.26;52.16
60228;BME280;46091;46.512;6.626;2023-05-11T13:16:25;96521.69;;;18.26;52.38
60228;BME280;46091;46.512;6.626;2023-05-11T13:18:29;96518.22;;;18.26;52.27
60228;BME280;46091;46.512;6.626;2023-05-11T13:20:32;96518.69;;;18.23;52.30
60228;BME280;46091;46.512;6.626;2023-05-11T13:22:36;96518.13;;;18.21;52.29
60228;BME280;46091;46.512;6.626;2023-05-11T13:24:38;96506.34;;;18.22;52.36
60228;BME280;46091;46.512;6.626;2023-05-11T13:26:42;96502.63;;;18.23;52.27
60228;BME280;46091;46.512;6.626;2023-05-11T13:28:45;96503.22;;;18.25;52.32
60228;BME280;46091;46.512;6.626;2023-05-11T13:31:02;96502.72;;;18.28;52.18
60228;BME280;46091;46.512;6.626;2023-05-11T13:33:06;96504.88;;;18.31;52.21
60228;BME280;46091;46.512;6.626;2023-05-11T13:35:09;96492.06;;;18.33;52.12
60228;BME280;46091;46.512;6.626;2023-05-11T13:37:12;96490.75;;;18.36;52.00
60228;BME280;46091;46.512;6.626;2023-05-11T13:39:15;96492.69;;;18.40;52.29
60228;BME280;46091;46.512;6.626;2023-05-11T13:41:18;96489.03;;;18.46;52.37
60228;BME280;46091;46.512;6.626;2023-05-11T13:43:21;96490.69;;;18.52;52.23
60228;BME280;46091;46.512;6.626;2023-05-11T13:45:24;96494.47;;;18.56;52.07
60228;BME280;46091;46.512;6.626;2023-05-11T13:47:27;96491.56;;;18.58;52.14
60228;BME280;46091;46.512;6.626;2023-05-11T13:49:31;96485.88;;;18.54;52.01
60228;BME280;46091;46.512;6.626;2023-05-11T13:51:34;96497.09;;;18.51;52.21
60228;BME280;46091;46.512;6.626;2023-05-11T13:53:37;96498.97;;;18.51;52.22
60228;BME280;46091;46.512;6.626;2023-05-11T13:55:40;96491.69;;;18.46;52.02
60228;BME280;46091;46.512;6.626;2023-05-11T13:57:44;96484.09;;;18.38;52.09
60228;BME280;46091;46.512;6.626;2023-05-11T13:59:47;96490.44;;;18.32;52.38
60228;BME280;46091;46.512;6.626;2023-05-11T14:01:50;96484.53;;;18.30;52.28
60228;BME280;46091;46.512;6.626;2023-05-11T14:03:54;96482.34;;;18.27;52.38
60228;BME280;46091;46.512;6.626;2023-05-11T14:05:59;96490.38;;;18.27;52.09
60228;BME280;46091;46.512;6.626;2023-05-11T14:08:03;96486.09;;;18.26;52.25
60228;BME280;46091;46.512;6.626;2023-05-11T14:10:07;96489.03;;;18.24;52.05
60228;BME280;46091;46.512;6.626;2023-05-11T14:12:11;96486.00;;;18.21;51.97
60228;BME280;46091;46.512;6.626;2023-05-11T14:14:14;96487.88;;;18.20;52.12
60228;BME280;46091;46.512;6.626;2023-05-11T14:16:17;96480.63;;;18.16;52.03
60228;BME280;46091;46.512;6.626;2023-05-11T14:18:20;96473.81;;;18.08;52.09
60228;BME280;46091;46.512;6.626;2023-05-11T14:20:25;96480.72;;;18.04;52.27
60228;BME280;46091;46.512;6.626;2023-05-11T14:22:29;96478.56;;;18.01;52.20
60228;BME280;46091;46.512;6.626;2023-05-11T14:24:32;96472.88;;;17.97;52.14
60228;BME280;46091;46.512;6.626;2023-05-11T14:26:36;96468.28;;;17.93;52.22
60228;BME280;46091;46.512;6.626;2023-05-11T14:28:39;96475.00;;;17.95;52.34
60228;BME280;46091;46.512;6.626;2023-05-11T14:30:42;96464.31;;;17.95;52.16
60228;BME280;46091;46.512;6.626;2023-05-11T14:32:45;96461.06;;;17.93;52.19
60228;BME280;46091;46.512;6.626;2023-05-11T14:34:48;96461.88;;;17.94;52.28
60228;BME280;46091;46.512;6.626;2023-05-11T14:36:50;96462.44;;;17.96;52.22
60228;BME280;46091;46.512;6.626;2023-05-11T14:38:55;96461.13;;;17.98;52.11
60228;BME280;46091;46.512;6.626;2023-05-11T14:40:58;96463.78;;;17.98;52.18
60228;BME280;46091;46.512;6.626;2023-05-11T14:43:01;96463.06;;;18.03;52.05
60228;BME280;46091;46.512;6.626;2023-05-11T14:45:05;96459.09;;;18.06;52.04
60228;BME280;46091;46.512;6.626;2023-05-11T14:47:08;96456.72;;;18.09;51.84
60228;BME280;46091;46.512;6.626;2023-05-11T14:49:11;96459.63;;;18.08;51.91
60228;BME280;46091;46.512;6.626;2023-05-11T14:51:15;96458.03;;;18.07;51.88
60228;BME280;46091;46.512;6.626;2023-05-11T14:53:18;96456.66;;;18.04;51.87
60228;BME280;46091;46.512;6.626;2023-05-11T14:55:23;96462.25;;;18.02;51.83
60228;BME280;46091;46.512;6.626;2023-05-11T14:57:26;96466.56;;;18.03;51.87
60228;BME280;46091;46.512;6.626;2023-05-11T14:59:28;96458.53;;;18.03;51.65
60228;BME280;46091;46.512;6.626;2023-05-11T15:01:31;96463.31;;;18.01;51.92
60228;BME280;46091;46.512;6.626;2023-05-11T15:03:34;96462.50;;;18.01;51.70
60228;BME280;46091;46.512;6.626;2023-05-11T15:05:38;96468.66;;;18.01;51.67
60228;BME280;46091;46.512;6.626;2023-05-11T15:07:41;96456.31;;;18.00;51.65
60228;BME280;46091;46.512;6.626;2023-05-11T15:09:44;96456.31;;;18.00;51.71
60228;BME280;46091;46.512;6.626;2023-05-11T15:11:48;96442.94;;;18.00;51.55
60228;BME280;46091;46.512;6.626;2023-05-11T15:13:51;96450.50;;;18.03;51.50
60228;BME280;46091;46.512;6.626;2023-05-11T15:15:55;96448.31;;;18.00;51.48
60228;BME280;46091;46.512;6.626;2023-05-11T15:17:58;96454.25;;;18.02;51.50
60228;BME280;46091;46.512;6.626;2023-05-11T15:20:01;96455.84;;;18.03;51.50
60228;BME280;46091;46.512;6.626;2023-05-11T15:22:05;96453.44;;;18.02;51.25
60228;BME280;46091;46.512;6.626;2023-05-11T15:24:08;96448.63;;;18.04;51.34
60228;BME280;46091;46.512;6.626;2023-05-11T15:26:12;96451.31;;;18.04;51.06
60228;BME280;46091;46.512;6.626;2023-05-11T15:28:16;96449.19;;;18.06;50.93
60228;BME280;46091;46.512;6.626;2023-05-11T15:30:19;96447.84;;;18.03;50.96
60228;BME280;46091;46.512;6.626;2023-05-11T15:32:22;96444.91;;;18.05;50.98
60228;BME280;46091;46.512;6.626;2023-05-11T15:34:25;96448.38;;;18.06;50.82
60228;BME280;46091;46.512;6.626;2023-05-11T15:36:28;96437.69;;;18.06;50.69
60228;BME280;46091;46.512;6.626;2023-05-11T15:38:32;96442.22;;;18.05;50.94
60228;BME280;46091;46.512;6.626;2023-05-11T15:40:35;96443.53;;;18.02;50.79
60228;BME280;46091;46.512;6.626;2023-05-11T15:42:37;96441.41;;;18.04;50.79
60228;BME280;46091;46.512;6.626;2023-05-11T15:44:42;96439.56;;;18.05;50.62
60228;BME280;46091;46.512;6.626;2023-05-11T15:46:44;96437.69;;;18.06;50.41
60228;BME280;46091;46.512;6.626;2023-05-11T15:48:47;96435.81;;;18.06;50.42
60228;BME280;46091;46.512;6.626;2023-05-11T15:50:50;96437.69;;;18.06;50.31
60228;BME280;46091;46.512;6.626;2023-05-11T15:52:53;96443.59;;;18.08;50.16
60228;BME280;46091;46.512;6.626;2023-05-11T15:54:56;96433.94;;;18.07;50.25
60228;BME280;46091;46.512;6.626;2023-05-11T15:56:59;96442.78;;;18.07;49.99
60228;BME280;46091;46.512;6.626;2023-05-11T15:59:02;96439.84;;;18.09;49.89
60228;BME280;46091;46.512;6.626;2023-05-11T16:01:08;96444.94;;;18.10;49.96
60228;BME280;46091;46.512;6.626;2023-05-11T16:03:11;96439.59;;;18.10;49.88
60228;BME280;46091;46.512;6.626;2023-05-11T16:05:14;96446.34;;;18.13;49.80
60228;BME280;46091;46.512;6.626;2023-05-11T16:07:17;96445.28;;;18.14;49.65
60228;BME280;46091;46.512;6.626;2023-05-11T16:09:20;96446.09;;;18.14;49.60
60228;BME280;46091;46.512;6.626;2023-05-11T16:11:23;96449.56;;;18.15;49.41
60228;BME280;46091;46.512;6.626;2023-05-11T16:13:26;96441.53;;;18.15;49.47
60228;BME280;46091;46.512;6.626;2023-05-11T16:15:30;96443.16;;;18.16;49.41
60228;BME280;46091;46.512;6.626;2023-05-11T16:17:35;96443.47;;;18.19;49.39
60228;BME280;46091;46.512;6.626;2023-05-11T16:19:38;96448.31;;;18.22;49.25
60228;BME280;46091;46.512;6.626;2023-05-11T16:21:41;96445.63;;;18.22;49.35
60228;BME280;46091;46.512;6.626;2023-05-11T16:23:44;96441.09;;;18.23;48.96